createdAt,value
2018-08-25T00:00:12.318Z,22.28
2018-08-25T00:02:41.542Z,22.26
2018-08-25T00:05:10.778Z,22.26
2018-08-25T00:07:40.042Z,22.29
2018-08-25T00:10:09.314Z,22.28
2018-08-25T00:12:38.522Z,22.30
2018-08-25T00:15:07.924Z,22.26
2018-08-25T00:17:37.278Z,22.23
2018-08-25T00:20:06.512Z,22.17
2018-08-25T00:22:35.819Z,22.05
2018-08-25T00:25:05.084Z,22.06
2018-08-25T00:27:34.314Z,21.98
2018-08-25T00:30:03.914Z,21.89
2018-08-25T00:32:33.130Z,21.90
2018-08-25T00:35:02.432Z,21.89
2018-08-25T00:37:31.715Z,21.86
2018-08-25T00:40:01.019Z,21.82
2018-08-25T00:42:30.250Z,21.81
2018-08-25T00:44:59.469Z,21.81
2018-08-25T00:47:28.719Z,21.76
2018-08-25T00:49:57.936Z,21.73
2018-08-25T00:52:27.201Z,21.78
2018-08-25T00:54:56.502Z,21.74
2018-08-25T00:57:25.782Z,21.70
2018-08-25T00:59:55.165Z,21.67
2018-08-25T01:02:24.905Z,21.70
2018-08-25T01:04:54.522Z,21.69
2018-08-25T01:07:23.851Z,21.66
2018-08-25T01:09:53.322Z,21.68
2018-08-25T01:12:22.577Z,21.71
2018-08-25T01:14:51.945Z,21.68
2018-08-25T01:17:21.252Z,21.63
2018-08-25T01:19:50.676Z,21.63
2018-08-25T01:22:19.908Z,21.62
2018-08-25T01:24:49.209Z,21.59
2018-08-25T01:27:18.423Z,21.57
2018-08-25T01:29:47.664Z,21.53
2018-08-25T01:32:16.927Z,21.58
2018-08-25T01:34:46.316Z,21.49
2018-08-25T01:37:15.554Z,21.50
2018-08-25T01:39:44.825Z,21.47
2018-08-25T01:42:14.003Z,21.46
2018-08-25T01:44:43.219Z,21.44
2018-08-25T01:47:12.470Z,21.44
2018-08-25T01:49:41.702Z,21.45
2018-08-25T01:52:10.951Z,21.40
2018-08-25T01:54:40.250Z,21.38
2018-08-25T01:57:09.507Z,21.42
2018-08-25T01:59:38.775Z,21.45
2018-08-25T02:02:08.052Z,21.45
2018-08-25T02:04:37.346Z,21.42
2018-08-25T02:07:06.647Z,21.44
2018-08-25T02:09:35.986Z,21.48
2018-08-25T02:12:05.374Z,21.53
2018-08-25T02:14:34.605Z,21.59
2018-08-25T02:17:04.063Z,21.68
2018-08-25T02:19:33.279Z,21.64
2018-08-25T02:22:02.504Z,21.60
2018-08-25T02:24:31.826Z,21.61
2018-08-25T02:27:01.679Z,21.68
2018-08-25T02:29:30.996Z,21.88
2018-08-25T02:32:00.282Z,22.01
2018-08-25T02:34:29.519Z,22.09
2018-08-25T02:36:58.831Z,22.17
2018-08-25T02:39:28.072Z,22.22
2018-08-25T02:41:57.295Z,22.29
2018-08-25T02:44:26.549Z,22.33
2018-08-25T02:46:55.875Z,22.37
2018-08-25T02:49:25.177Z,22.41
2018-08-25T02:51:54.502Z,22.45
2018-08-25T02:54:23.847Z,22.49
2018-08-25T02:56:53.070Z,22.53
2018-08-25T02:59:22.371Z,22.57
2018-08-25T03:01:52.174Z,22.60
2018-08-25T03:04:21.831Z,22.65
2018-08-25T03:06:51.099Z,22.67
2018-08-25T03:09:20.403Z,22.70
2018-08-25T03:11:49.611Z,22.72
2018-08-25T03:14:18.865Z,22.74
2018-08-25T03:16:48.171Z,22.78
2018-08-25T03:19:17.401Z,22.80
2018-08-25T03:21:46.602Z,22.82
2018-08-25T03:24:15.872Z,22.85
2018-08-25T03:26:45.242Z,22.87
2018-08-25T03:29:14.485Z,22.89
2018-08-25T03:31:43.695Z,22.90
2018-08-25T03:34:13.009Z,22.93
2018-08-25T03:36:42.228Z,22.95
2018-08-25T03:39:12.557Z,22.97
2018-08-25T03:41:41.873Z,22.99
2018-08-25T03:44:11.816Z,23.00
2018-08-25T03:46:41.117Z,23.00
2018-08-25T03:49:10.745Z,23.02
2018-08-25T03:51:39.971Z,23.01
2018-08-25T03:54:09.197Z,23.02
2018-08-25T03:56:38.509Z,23.07
2018-08-25T03:59:07.563Z,23.09
2018-08-25T04:01:36.707Z,23.12
2018-08-25T04:04:05.832Z,23.11
2018-08-25T04:06:34.950Z,23.13
2018-08-25T04:09:05.751Z,23.14
2018-08-25T04:11:35.103Z,23.15
2018-08-25T04:14:04.404Z,23.18
2018-08-25T04:16:33.544Z,23.19
2018-08-25T04:19:02.832Z,23.19
2018-08-25T04:21:31.931Z,23.20
2018-08-25T04:24:01.032Z,23.22
2018-08-25T04:26:30.084Z,23.21
2018-08-25T04:28:59.151Z,23.23
2018-08-25T04:31:28.291Z,23.24
2018-08-25T04:33:57.349Z,23.24
2018-08-25T04:36:26.615Z,23.26
2018-08-25T04:39:01.343Z,23.27
2018-08-25T04:41:35.753Z,23.28
2018-08-25T04:44:04.805Z,23.28
2018-08-25T04:46:33.852Z,23.29
2018-08-25T04:49:02.992Z,23.29
2018-08-25T04:51:32.240Z,23.29
2018-08-25T04:54:01.440Z,23.29
2018-08-25T04:56:30.506Z,23.30
2018-08-25T04:58:59.684Z,23.31
2018-08-25T05:01:29.031Z,23.31
2018-08-25T05:03:58.109Z,23.32
2018-08-25T05:06:27.199Z,23.32
2018-08-25T05:08:56.292Z,23.33
2018-08-25T05:11:25.403Z,23.33
2018-08-25T05:13:54.503Z,23.33
2018-08-25T05:16:23.675Z,23.34
2018-08-25T05:18:52.752Z,23.34
2018-08-25T05:21:21.816Z,23.33
2018-08-25T05:23:51.057Z,23.33
2018-08-25T05:26:20.285Z,23.33
2018-08-25T05:28:49.399Z,23.35
2018-08-25T05:31:18.531Z,23.36
2018-08-25T05:33:47.668Z,23.35
2018-08-25T05:36:16.775Z,23.36
2018-08-25T05:38:45.877Z,23.37
2018-08-25T05:41:14.936Z,23.38
2018-08-25T05:43:44.145Z,23.37
2018-08-25T05:46:13.451Z,23.38
2018-08-25T05:48:42.493Z,23.38
2018-08-25T05:51:11.636Z,23.40
2018-08-25T05:53:40.720Z,23.43
2018-08-25T05:56:09.800Z,23.41
2018-08-25T05:58:38.932Z,23.42
2018-08-25T06:01:08.747Z,23.40
2018-08-25T06:03:38.091Z,23.42
2018-08-25T06:06:07.161Z,23.44
2018-08-25T06:08:36.525Z,23.46
2018-08-25T06:11:05.892Z,23.45
2018-08-25T06:13:35.001Z,23.47
2018-08-25T06:16:04.340Z,23.48
2018-08-25T06:18:33.462Z,23.49
2018-08-25T06:21:02.564Z,23.48
2018-08-25T06:23:31.633Z,23.49
2018-08-25T06:26:01.104Z,23.50
2018-08-25T06:28:30.172Z,23.49
2018-08-25T06:30:59.333Z,23.48
2018-08-25T06:33:28.424Z,23.50
2018-08-25T06:35:57.487Z,23.46
2018-08-25T06:38:26.836Z,23.48
2018-08-25T06:40:56.237Z,23.49
2018-08-25T06:43:25.356Z,23.48
2018-08-25T06:46:00.003Z,23.50
2018-08-25T06:48:29.256Z,23.50
2018-08-25T06:50:58.354Z,23.50
2018-08-25T06:53:27.464Z,23.50
2018-08-25T06:55:56.662Z,23.51
2018-08-25T06:58:25.765Z,23.53
2018-08-25T07:00:54.839Z,23.57
2018-08-25T07:03:23.936Z,23.61
2018-08-25T07:05:53.334Z,23.63
2018-08-25T07:08:22.572Z,23.69
2018-08-25T07:10:51.662Z,23.72
2018-08-25T07:13:20.740Z,23.78
2018-08-25T07:15:49.892Z,23.81
2018-08-25T07:18:18.958Z,23.80
2018-08-25T07:20:48.038Z,23.80
2018-08-25T07:23:17.112Z,23.81
2018-08-25T07:25:46.385Z,23.82
2018-08-25T07:28:15.607Z,23.85
2018-08-25T07:30:44.800Z,23.87
2018-08-25T07:33:13.850Z,23.93
2018-08-25T07:35:43.103Z,23.98
2018-08-25T07:38:12.322Z,24.02
2018-08-25T07:40:41.564Z,24.03
2018-08-25T07:43:10.635Z,24.04
2018-08-25T07:45:39.770Z,24.04
2018-08-25T07:48:08.876Z,24.05
2018-08-25T07:50:37.960Z,24.11
2018-08-25T07:53:07.016Z,24.14
2018-08-25T07:55:36.134Z,24.16
2018-08-25T07:58:05.304Z,24.16
2018-08-25T08:00:34.464Z,24.18
2018-08-25T08:03:03.578Z,24.18
2018-08-25T08:05:32.791Z,24.27
2018-08-25T08:08:02.013Z,24.31
2018-08-25T08:10:31.172Z,24.33
2018-08-25T08:13:00.328Z,24.39
2018-08-25T08:15:29.533Z,24.41
2018-08-25T08:17:58.709Z,24.40
2018-08-25T08:20:27.828Z,24.36
2018-08-25T08:22:56.918Z,24.37
2018-08-25T08:25:25.995Z,24.39
2018-08-25T08:27:55.072Z,24.38
2018-08-25T08:30:24.226Z,24.32
2018-08-25T08:32:53.499Z,24.31
2018-08-25T08:35:22.734Z,24.33
2018-08-25T08:37:51.930Z,24.34
2018-08-25T08:40:20.996Z,24.33
2018-08-25T08:42:50.172Z,24.28
2018-08-25T08:45:19.359Z,24.22
2018-08-25T08:47:48.726Z,24.24
2018-08-25T08:50:17.864Z,24.23
2018-08-25T08:52:47.115Z,24.23
2018-08-25T08:55:16.191Z,24.24
2018-08-25T08:57:45.271Z,24.25
2018-08-25T09:00:14.334Z,24.23
2018-08-25T09:02:43.503Z,24.21
2018-08-25T09:05:12.714Z,24.17
2018-08-25T09:07:41.872Z,24.14
2018-08-25T09:10:10.912Z,24.13
2018-08-25T09:12:40.080Z,24.13
2018-08-25T09:15:09.135Z,24.16
2018-08-25T09:17:38.280Z,24.17
2018-08-25T09:20:07.358Z,24.17
2018-08-25T09:22:36.556Z,24.17
2018-08-25T09:25:05.878Z,24.15
2018-08-25T09:27:34.962Z,24.18
2018-08-25T09:30:04.153Z,24.19
2018-08-25T09:32:33.488Z,24.19
2018-08-25T09:35:02.544Z,24.20
2018-08-25T09:37:31.627Z,24.21
2018-08-25T09:40:00.796Z,24.24
2018-08-25T09:42:30.079Z,24.23
2018-08-25T09:44:59.139Z,24.21
2018-08-25T09:47:28.262Z,24.25
2018-08-25T09:49:57.323Z,24.28
2018-08-25T09:52:26.438Z,24.25
2018-08-25T09:54:55.726Z,24.26
2018-08-25T09:57:24.844Z,24.22
2018-08-25T09:59:54.195Z,24.25
2018-08-25T10:02:23.339Z,24.27
2018-08-25T10:04:58.051Z,24.27
2018-08-25T10:07:32.707Z,24.27
2018-08-25T10:10:01.805Z,23.55
2018-08-25T10:12:30.871Z,23.00
2018-08-25T10:14:59.993Z,22.70
2018-08-25T10:17:29.191Z,22.99
2018-08-25T10:19:58.347Z,23.24
2018-08-25T10:22:27.628Z,23.42
2018-08-25T10:24:56.979Z,23.57
2018-08-25T10:27:26.290Z,23.73
2018-08-25T10:29:55.487Z,23.78
2018-08-25T10:32:24.623Z,23.84
2018-08-25T10:34:53.731Z,23.87
2018-08-25T10:37:22.895Z,23.88
2018-08-25T10:39:52.096Z,23.92
2018-08-25T10:42:21.218Z,23.91
2018-08-25T10:44:50.359Z,23.93
2018-08-25T10:47:19.415Z,23.97
2018-08-25T10:49:48.504Z,24.01
2018-08-25T10:52:17.657Z,24.03
2018-08-25T10:54:46.782Z,24.08
2018-08-25T10:57:15.904Z,24.04
2018-08-25T10:59:45.023Z,24.11
2018-08-25T11:02:19.763Z,24.14
2018-08-25T11:04:48.900Z,24.14
2018-08-25T11:07:18.077Z,24.15
2018-08-25T11:09:47.252Z,24.20
2018-08-25T11:12:16.436Z,24.21
2018-08-25T11:14:45.882Z,24.22
2018-08-25T11:17:15.213Z,24.22
2018-08-25T11:19:44.350Z,24.22
2018-08-25T11:22:13.454Z,24.21
2018-08-25T11:24:42.638Z,24.24
2018-08-25T11:27:11.844Z,24.27
2018-08-25T11:29:40.944Z,24.28
2018-08-25T11:32:10.035Z,24.32
2018-08-25T11:34:39.208Z,24.34
2018-08-25T11:37:08.584Z,24.31
2018-08-25T11:39:37.804Z,24.39
2018-08-25T11:42:06.944Z,23.80
2018-08-25T11:44:36.157Z,23.08
2018-08-25T11:47:11.054Z,22.73
2018-08-25T11:49:40.188Z,23.14
2018-08-25T11:52:09.525Z,23.42
2018-08-25T11:54:38.820Z,23.63
2018-08-25T11:57:07.953Z,23.73
2018-08-25T11:59:36.992Z,23.83
2018-08-25T12:02:06.294Z,23.96
2018-08-25T12:04:35.653Z,24.01
2018-08-25T12:07:05.054Z,24.01
2018-08-25T12:09:34.222Z,24.04
2018-08-25T12:12:03.526Z,24.08
2018-08-25T12:14:32.674Z,24.14
2018-08-25T12:17:01.842Z,24.16
2018-08-25T12:19:31.034Z,24.21
2018-08-25T12:22:00.136Z,24.23
2018-08-25T12:24:29.332Z,24.14
2018-08-25T12:27:00.870Z,24.20
2018-08-25T12:29:30.244Z,24.17
2018-08-25T12:31:59.964Z,24.17
2018-08-25T12:34:29.295Z,24.23
2018-08-25T12:36:58.513Z,24.22
2018-08-25T12:39:27.726Z,24.19
2018-08-25T12:41:57.234Z,24.20
2018-08-25T12:44:26.623Z,24.25
2018-08-25T12:46:55.716Z,24.26
2018-08-25T12:49:24.771Z,24.24
2018-08-25T12:51:54.127Z,24.25
2018-08-25T12:54:23.209Z,24.23
2018-08-25T12:56:52.727Z,24.20
2018-08-25T12:59:22.454Z,24.23
2018-08-25T13:01:54.658Z,24.25
2018-08-25T13:04:24.150Z,24.29
2018-08-25T13:06:53.303Z,24.25
2018-08-25T13:09:22.833Z,24.19
2018-08-25T13:11:52.011Z,24.25
2018-08-25T13:14:21.860Z,24.25
2018-08-25T13:16:51.543Z,24.25
2018-08-25T13:19:21.035Z,24.22
2018-08-25T13:21:50.481Z,24.19
2018-08-25T13:24:20.194Z,24.17
2018-08-25T13:26:49.278Z,24.20
2018-08-25T13:29:18.763Z,24.22
2018-08-25T13:31:48.282Z,24.21
2018-08-25T13:34:17.359Z,24.24
2018-08-25T13:36:46.551Z,24.30
2018-08-25T13:39:15.733Z,24.31
2018-08-25T13:41:44.944Z,24.30
2018-08-25T13:44:14.295Z,24.33
2018-08-25T13:46:43.938Z,24.30
2018-08-25T13:49:13.881Z,24.32
2018-08-25T13:51:44.036Z,24.31
2018-08-25T13:54:13.164Z,24.32
2018-08-25T13:56:42.915Z,24.34
2018-08-25T13:59:12.377Z,24.36
2018-08-25T14:01:41.807Z,24.39
2018-08-25T14:04:10.988Z,24.40
2018-08-25T14:06:41.413Z,24.45
2018-08-25T14:09:10.515Z,24.45
2018-08-25T14:11:39.572Z,24.44
2018-08-25T14:14:08.631Z,24.45
2018-08-25T14:16:37.707Z,24.47
2018-08-25T14:19:06.811Z,24.45
2018-08-25T14:21:37.560Z,24.45
2018-08-25T14:24:07.509Z,24.48
2018-08-25T14:26:37.917Z,24.47
2018-08-25T14:29:06.999Z,24.47
2018-08-25T14:31:37.425Z,24.46
2018-08-25T14:34:07.280Z,24.44
2018-08-25T14:36:38.947Z,24.42
2018-08-25T14:39:09.265Z,24.49
2018-08-25T14:41:38.366Z,24.52
2018-08-25T14:44:08.140Z,24.49
2018-08-25T14:46:38.710Z,24.46
2018-08-25T14:49:09.539Z,24.42
2018-08-25T14:51:38.671Z,24.39
2018-08-25T14:54:08.251Z,24.39
2018-08-25T14:56:37.676Z,24.35
2018-08-25T14:59:06.796Z,24.35
2018-08-25T15:01:36.104Z,24.31
2018-08-25T15:04:06.444Z,24.29
2018-08-25T15:06:35.536Z,24.28
2018-08-25T15:09:08.364Z,24.28
2018-08-25T15:11:37.483Z,24.26
2018-08-25T15:14:07.935Z,24.26
2018-08-25T15:16:38.787Z,24.25
2018-08-25T15:19:07.870Z,24.23
2018-08-25T15:21:37.820Z,24.23
2018-08-25T15:24:06.900Z,24.24
2018-08-25T15:26:36.043Z,24.25
2018-08-25T15:29:05.141Z,24.25
2018-08-25T15:31:35.307Z,24.26
2018-08-25T15:34:04.810Z,24.26
2018-08-25T15:36:34.028Z,24.26
2018-08-25T15:39:05.336Z,24.26
2018-08-25T15:41:34.467Z,24.25
2018-08-25T15:44:03.593Z,24.24
2018-08-25T15:46:32.864Z,24.21
2018-08-25T15:49:03.404Z,24.24
2018-08-25T15:51:32.879Z,24.24
2018-08-25T15:54:02.426Z,24.24
2018-08-25T15:56:31.483Z,24.26
2018-08-25T15:59:00.611Z,24.24
2018-08-25T16:01:31.066Z,24.18
2018-08-25T16:04:00.631Z,24.19
2018-08-25T16:06:29.714Z,24.16
2018-08-25T16:08:58.819Z,24.16
2018-08-25T16:11:28.426Z,24.17
2018-08-25T16:13:57.639Z,24.14
2018-08-25T16:16:27.291Z,24.17
2018-08-25T16:18:57.295Z,24.13
2018-08-25T16:21:26.833Z,24.12
2018-08-25T16:23:56.391Z,24.09
2018-08-25T16:26:25.873Z,24.08
2018-08-25T16:28:55.883Z,24.05
2018-08-25T16:31:25.050Z,24.05
2018-08-25T16:33:55.427Z,24.04
2018-08-25T16:36:24.903Z,24.05
2018-08-25T16:38:53.988Z,24.05
2018-08-25T16:41:23.907Z,24.07
2018-08-25T16:43:54.404Z,24.06
2018-08-25T16:46:23.485Z,24.05
2018-08-25T16:48:53.003Z,24.08
2018-08-25T16:51:22.175Z,24.04
2018-08-25T16:53:51.228Z,24.03
2018-08-25T16:56:20.308Z,24.01
2018-08-25T16:58:49.789Z,23.98
2018-08-25T17:01:19.677Z,24.01
2018-08-25T17:03:49.361Z,23.98
2018-08-25T17:06:19.812Z,23.95
2018-08-25T17:08:49.288Z,23.97
2018-08-25T17:11:19.024Z,24.00
2018-08-25T17:13:48.499Z,24.03
2018-08-25T17:16:17.652Z,24.04
2018-08-25T17:18:46.858Z,24.03
2018-08-25T17:21:16.516Z,24.04
2018-08-25T17:23:46.199Z,24.02
2018-08-25T17:26:16.265Z,24.10
2018-08-25T17:28:46.772Z,24.16
2018-08-25T17:31:16.389Z,24.19
2018-08-25T17:33:45.938Z,24.18
2018-08-25T17:36:15.394Z,24.17
2018-08-25T17:38:45.270Z,24.15
2018-08-25T17:41:14.588Z,24.16
2018-08-25T17:43:43.744Z,24.15
2018-08-25T17:46:13.348Z,24.12
2018-08-25T17:48:43.229Z,24.16
2018-08-25T17:51:13.140Z,24.16
2018-08-25T17:53:42.464Z,24.16
2018-08-25T17:56:11.755Z,24.16
2018-08-25T17:58:40.911Z,24.17
2018-08-25T18:01:10.981Z,24.14
2018-08-25T18:03:40.143Z,24.20
2018-08-25T18:06:10.790Z,24.14
2018-08-25T18:08:40.311Z,24.11
2018-08-25T18:11:09.768Z,24.12
2018-08-25T18:13:39.492Z,24.19
2018-08-25T18:16:08.899Z,24.24
2018-08-25T18:18:38.103Z,24.23
2018-08-25T18:21:07.489Z,24.23
2018-08-25T18:23:37.200Z,24.26
2018-08-25T18:26:06.704Z,24.28
2018-08-25T18:28:35.858Z,24.28
2018-08-25T18:31:05.425Z,24.30
2018-08-25T18:33:34.724Z,24.31
2018-08-25T18:36:04.065Z,24.34
2018-08-25T18:38:33.513Z,24.31
2018-08-25T18:41:02.614Z,24.27
2018-08-25T18:43:32.356Z,24.24
2018-08-25T18:46:01.847Z,24.28
2018-08-25T18:48:31.562Z,24.31
2018-08-25T18:51:02.172Z,24.32
2018-08-25T18:53:31.660Z,24.33
2018-08-25T18:56:01.241Z,24.29
2018-08-25T18:58:31.615Z,24.29
2018-08-25T19:01:01.191Z,24.28
2018-08-25T19:03:31.501Z,24.26
2018-08-25T19:06:01.023Z,24.24
2018-08-25T19:08:31.163Z,24.23
2018-08-25T19:11:00.670Z,24.22
2018-08-25T19:13:35.174Z,24.22
2018-08-25T19:16:04.653Z,24.21
2018-08-25T19:18:34.376Z,24.20
2018-08-25T19:21:04.326Z,24.19
2018-08-25T19:23:34.239Z,24.19
2018-08-25T19:26:03.682Z,24.18
2018-08-25T19:28:33.426Z,24.18
2018-08-25T19:31:02.900Z,24.19
2018-08-25T19:33:32.971Z,24.17
2018-08-25T19:36:02.792Z,24.16
2018-08-25T19:38:32.295Z,24.16
2018-08-25T19:41:02.054Z,24.15
2018-08-25T19:43:31.714Z,24.14
2018-08-25T19:46:01.221Z,24.13
2018-08-25T19:48:30.930Z,24.14
2018-08-25T19:51:00.435Z,24.14
2018-08-25T19:53:29.895Z,24.15
2018-08-25T19:55:59.610Z,24.13
2018-08-25T19:58:30.856Z,24.13
2018-08-25T20:01:00.500Z,24.11
2018-08-25T20:03:30.478Z,24.10
2018-08-25T20:05:59.583Z,24.09
2018-08-25T20:08:29.240Z,24.09
2018-08-25T20:10:58.380Z,24.09
2018-08-25T20:13:27.890Z,24.08
2018-08-25T20:15:57.379Z,24.05
2018-08-25T20:18:26.718Z,24.08
2018-08-25T20:20:57.296Z,24.08
2018-08-25T20:23:27.489Z,24.07
2018-08-25T20:25:56.932Z,24.08
2018-08-25T20:28:26.172Z,24.08
2018-08-25T20:30:55.592Z,24.06
2018-08-25T20:33:25.364Z,24.04
2018-08-25T20:35:54.915Z,24.05
2018-08-25T20:38:24.785Z,24.04
2018-08-25T20:40:55.167Z,24.02
2018-08-25T20:43:24.658Z,24.01
2018-08-25T20:45:54.061Z,24.02
2018-08-25T20:48:23.431Z,24.00
2018-08-25T20:50:52.666Z,24.00
2018-08-25T20:53:22.002Z,23.99
2018-08-25T20:55:51.373Z,23.99
2018-08-25T20:58:20.552Z,24.00
2018-08-25T21:00:49.916Z,24.00
2018-08-25T21:03:19.243Z,23.98
2018-08-25T21:05:48.468Z,23.96
2018-08-25T21:08:17.607Z,23.98
2018-08-25T21:10:46.747Z,23.96
2018-08-25T21:13:15.942Z,23.97
2018-08-25T21:15:45.213Z,23.96
2018-08-25T21:18:14.446Z,23.96
2018-08-25T21:20:43.755Z,23.96
2018-08-25T21:23:12.893Z,23.94
2018-08-25T21:25:42.012Z,23.90
2018-08-25T21:28:11.136Z,23.89
2018-08-25T21:30:40.296Z,23.89
2018-08-25T21:33:09.376Z,23.89
2018-08-25T21:35:38.464Z,23.90
2018-08-25T21:38:07.599Z,23.89
2018-08-25T21:40:36.882Z,23.89
2018-08-25T21:43:06.124Z,23.89
2018-08-25T21:45:35.332Z,23.90
2018-08-25T21:48:04.398Z,23.90
2018-08-25T21:50:33.592Z,23.89
2018-08-25T21:53:02.815Z,23.90
2018-08-25T21:55:31.949Z,23.88
2018-08-25T21:58:01.063Z,23.87
2018-08-25T22:00:30.230Z,23.87
2018-08-25T22:03:04.787Z,23.89
2018-08-25T22:05:39.812Z,23.87
2018-08-25T22:08:08.957Z,23.88
2018-08-25T22:10:38.132Z,23.86
2018-08-25T22:13:07.225Z,23.91
2018-08-25T22:15:36.277Z,23.94
2018-08-25T22:18:05.367Z,23.96
2018-08-25T22:20:34.416Z,23.96
2018-08-25T22:23:03.511Z,23.98
2018-08-25T22:25:32.567Z,24.00
2018-08-25T22:28:01.668Z,24.00
2018-08-25T22:30:30.748Z,24.00
2018-08-25T22:33:00.065Z,24.02
2018-08-25T22:35:29.490Z,24.03
2018-08-25T22:37:58.575Z,24.05
2018-08-25T22:40:27.677Z,24.05
2018-08-25T22:42:56.791Z,24.07
2018-08-25T22:45:25.911Z,24.07
2018-08-25T22:47:55.004Z,24.08
2018-08-25T22:50:24.073Z,24.08
2018-08-25T22:52:53.416Z,24.09
2018-08-25T22:55:23.475Z,24.09
2018-08-25T22:57:52.547Z,24.10
2018-08-25T23:00:22.123Z,24.11
2018-08-25T23:02:51.211Z,24.11
2018-08-25T23:05:20.315Z,24.12
2018-08-25T23:07:49.411Z,24.13
2018-08-25T23:10:18.464Z,24.15
2018-08-25T23:12:47.606Z,24.14
2018-08-25T23:15:16.671Z,24.15
2018-08-25T23:17:45.736Z,24.15
2018-08-25T23:20:14.865Z,24.15
2018-08-25T23:22:43.997Z,24.15
2018-08-25T23:25:13.051Z,24.14
2018-08-25T23:27:42.167Z,24.17
2018-08-25T23:30:11.270Z,24.14
2018-08-25T23:32:40.570Z,24.16
2018-08-25T23:35:09.695Z,24.16
2018-08-25T23:37:38.805Z,24.13
2018-08-25T23:40:07.855Z,24.09
2018-08-25T23:42:36.943Z,24.06
2018-08-25T23:45:05.999Z,24.05
2018-08-25T23:47:35.153Z,24.02
2018-08-25T23:50:04.459Z,24.04
2018-08-25T23:52:34.816Z,24.02
2018-08-25T23:55:05.567Z,24.00
2018-08-25T23:57:34.730Z,23.99
